Time;durP1;ratioP1;P1;durP2;ratioP2;P2;SDS_P1;SDS_P2;PMS_P1;PMS_P2;Temp;Humidity;BMP_temperature;BMP_pressure;BME280_temperature;BME280_humidity;BME280_pressure;Samples;Min_cycle;Max_cycle;Signal;HPM_P1;HPM_P2
2021/12/01 00:00:20;;;;;;;20.80;10.95;;;9.50;99.90;;;;;;4990907;28;20654;-84
2021/12/01 00:02:53;;;;;;;26.08;11.15;;;9.50;99.90;;;;;;4998137;28;20148;-84
2021/12/01 00:05:20;;;;;;;23.10;11.48;;;9.50;99.90;;;;;;4994091;28;20137;-84
2021/12/01 00:07:46;;;;;;;22.73;11.55;;;9.50;99.90;;;;;;5005729;28;20606;-84
2021/12/01 00:10:12;;;;;;;22.77;11.23;;;9.50;99.90;;;;;;4988526;28;20077;-84
2021/12/01 00:12:37;;;;;;;22.50;12.80;;;9.50;99.90;;;;;;5003820;28;20069;-85
2021/12/01 00:15:05;;;;;;;21.58;11.18;;;9.60;99.90;;;;;;4992763;28;20038;-85
2021/12/01 00:17:32;;;;;;;23.17;12.20;;;9.50;99.90;;;;;;5004940;28;20039;-84
2021/12/01 00:19:59;;;;;;;21.02;10.90;;;9.60;99.90;;;;;;4989564;28;20046;-83
2021/12/01 00:22:28;;;;;;;24.20;12.13;;;9.60;99.90;;;;;;4991653;28;20093;-83
2021/12/01 00:24:54;;;;;;;18.02;11.00;;;9.60;99.90;;;;;;4990723;28;20044;-83
2021/12/01 00:27:20;;;;;;;21.60;12.00;;;9.60;99.90;;;;;;5004565;28;20102;-83
2021/12/01 00:29:46;;;;;;;21.17;12.32;;;9.50;99.90;;;;;;5013889;28;20510;-84
2021/12/01 00:32:11;;;;;;;20.85;11.25;;;9.60;99.90;;;;;;4996361;28;20041;-83
2021/12/01 00:34:37;;;;;;;21.42;11.13;;;9.50;99.90;;;;;;4995861;28;20041;-84
2021/12/01 00:37:03;;;;;;;21.63;10.80;;;9.60;99.90;;;;;;4985340;28;20073;-84
2021/12/01 00:39:29;;;;;;;16.88;10.18;;;9.60;99.90;;;;;;4975053;28;20056;-84
2021/12/01 00:41:56;;;;;;;17.90;9.63;;;9.50;99.90;;;;;;4993129;28;20034;-84
2021/12/01 00:44:22;;;;;;;20.05;9.93;;;9.60;99.90;;;;;;4993011;28;20392;-84
2021/12/01 00:47:04;;;;;;;19.92;11.18;;;9.60;99.90;;;;;;4989459;28;20072;-84
2021/12/01 00:49:32;;;;;;;23.13;10.90;;;9.60;99.90;;;;;;4985078;28;20061;-84
2021/12/01 00:51:58;;;;;;;19.02;10.55;;;9.60;99.90;;;;;;4988970;28;20038;-84
2021/12/01 00:54:24;;;;;;;18.85;9.40;;;9.60;99.90;;;;;;4994736;28;20069;-84
2021/12/01 00:56:50;;;;;;;19.17;9.38;;;9.60;99.90;;;;;;4993332;28;20040;-84
2021/12/01 00:59:16;;;;;;;14.35;7.75;;;9.60;99.90;;;;;;4991261;28;20050;-84
2021/12/01 01:01:43;;;;;;;19.27;9.07;;;9.70;99.90;;;;;;5010100;28;20041;-84
2021/12/01 01:04:09;;;;;;;16.52;7.68;;;9.60;99.90;;;;;;4989603;28;20125;-85
2021/12/01 01:06:35;;;;;;;17.75;9.43;;;9.60;99.90;;;;;;4993790;28;20564;-85
2021/12/01 01:09:05;;;;;;;18.17;7.65;;;9.60;99.90;;;;;;5010791;28;20479;-84
2021/12/01 01:17:06;;;;;;;11.70;5.68;;;9.60;99.90;;;;;;5001078;28;20046;-83
2021/12/01 01:19:33;;;;;;;9.15;5.15;;;9.60;99.90;;;;;;4992214;28;20042;-84
2021/12/01 01:22:00;;;;;;;11.70;5.15;;;9.70;99.90;;;;;;4978229;28;20534;-84
2021/12/01 01:24:27;;;;;;;10.65;5.22;;;9.70;99.90;;;;;;5028279;28;20050;-84
2021/12/01 01:26:56;;;;;;;10.32;4.88;;;9.60;99.90;;;;;;4996117;28;20038;-84
2021/12/01 01:29:22;;;;;;;7.68;4.35;;;9.60;99.90;;;;;;5012456;28;20040;-84
2021/12/01 01:31:55;;;;;;;10.35;5.00;;;9.60;99.90;;;;;;4997538;28;20034;-84
2021/12/01 01:34:22;;;;;;;9.35;4.95;;;9.60;99.90;;;;;;4994692;28;20049;-84
2021/12/01 01:36:47;;;;;;;9.02;4.95;;;9.60;99.90;;;;;;5005779;28;20133;-84
2021/12/01 01:39:13;;;;;;;11.30;4.75;;;9.60;99.90;;;;;;4995750;28;20077;-84
2021/12/01 01:41:39;;;;;;;8.50;5.18;;;9.60;99.90;;;;;;5008739;28;20044;-83
2021/12/01 01:44:05;;;;;;;10.98;5.85;;;9.70;99.90;;;;;;5013255;28;20045;-84
2021/12/01 01:46:34;;;;;;;11.27;5.75;;;9.70;99.90;;;;;;4995423;28;20038;-85
2021/12/01 01:49:07;;;;;;;11.10;5.60;;;9.70;99.90;;;;;;4994971;28;20065;-85
2021/12/01 01:51:33;;;;;;;8.30;5.00;;;9.70;99.90;;;;;;4990229;28;20057;-84
2021/12/01 01:53:59;;;;;;;9.18;4.63;;;9.70;99.90;;;;;;4991184;28;20149;-84
2021/12/01 01:56:26;;;;;;;8.15;4.18;;;9.70;99.90;;;;;;5009636;28;20072;-85
2021/12/01 01:58:52;;;;;;;11.20;5.68;;;9.80;99.90;;;;;;4991211;28;20471;-85
2021/12/01 02:03:53;;;;;;;8.63;4.68;;;9.80;99.90;;;;;;5006341;28;20137;-84
2021/12/01 02:06:23;;;;;;;10.35;5.40;;;9.80;99.90;;;;;;4989084;28;20137;-84
2021/12/01 02:08:50;;;;;;;8.63;4.70;;;9.80;99.90;;;;;;4976828;28;20045;-84
2021/12/01 02:11:18;;;;;;;11.07;6.13;;;9.80;99.90;;;;;;4980299;28;20045;-84
2021/12/01 02:13:45;;;;;;;9.93;6.10;;;9.80;99.90;;;;;;5008619;28;20038;-84
2021/12/01 02:16:11;;;;;;;12.20;5.97;;;9.80;99.90;;;;;;4970499;28;20082;-83
2021/12/01 02:18:38;;;;;;;14.27;7.03;;;9.70;99.90;;;;;;4971861;28;20042;-84
2021/12/01 02:21:08;;;;;;;14.30;6.95;;;9.80;99.90;;;;;;5006241;28;20053;-83
2021/12/01 02:23:36;;;;;;;12.45;5.45;;;9.80;99.90;;;;;;4980473;28;20412;-83
2021/12/01 02:26:04;;;;;;;9.52;5.18;;;9.80;99.90;;;;;;4980574;28;20120;-84
2021/12/01 02:28:30;;;;;;;12.90;6.38;;;9.80;99.90;;;;;;4982007;28;20041;-84
2021/12/01 02:30:57;;;;;;;12.82;5.68;;;9.80;99.90;;;;;;4989712;28;20157;-84
2021/12/01 02:33:22;;;;;;;8.32;4.05;;;9.80;99.90;;;;;;4993435;28;20034;-84
2021/12/01 02:35:48;;;;;;;9.05;4.82;;;9.80;99.90;;;;;;4990897;28;20049;-84
2021/12/01 02:38:14;;;;;;;8.55;4.40;;;9.80;99.90;;;;;;4986954;28;20038;-84
2021/12/01 02:40:39;;;;;;;5.78;3.08;;;9.80;99.90;;;;;;4970878;28;20180;-84
2021/12/01 02:43:05;;;;;;;5.65;3.42;;;9.90;99.90;;;;;;4983383;28;20124;-84
2021/12/01 02:45:30;;;;;;;5.43;2.67;;;9.80;99.90;;;;;;4987610;28;20039;-84
2021/12/01 02:47:56;;;;;;;4.43;2.33;;;9.80;99.90;;;;;;4990382;28;20066;-84
2021/12/01 02:50:22;;;;;;;6.32;2.30;;;9.90;99.90;;;;;;4988765;28;20038;-84
2021/12/01 02:52:47;;;;;;;4.80;1.67;;;9.90;99.90;;;;;;5001049;28;20488;-84
2021/12/01 02:55:18;;;;;;;4.05;1.40;;;9.90;99.90;;;;;;5003517;28;20046;-83
2021/12/01 02:57:50;;;;;;;2.22;0.90;;;9.90;99.90;;;;;;4983414;28;20407;-84
2021/12/01 03:00:18;;;;;;;3.47;0.95;;;10.00;99.90;;;;;;4984483;28;20326;-84
2021/12/01 03:02:45;;;;;;;6.38;1.08;;;10.10;99.90;;;;;;4984909;28;20030;-84
2021/12/01 03:05:11;;;;;;;6.93;0.90;;;10.00;99.90;;;;;;5008321;28;20133;-84
2021/12/01 03:07:38;;;;;;;2.22;0.70;;;10.10;99.90;;;;;;4964962;28;20476;-84
2021/12/01 03:10:07;;;;;;;5.70;1.13;;;10.10;99.90;;;;;;4987419;28;20042;-84
2021/12/01 03:12:35;;;;;;;2.75;0.65;;;10.10;99.90;;;;;;4968989;28;20042;-84
2021/12/01 03:15:01;;;;;;;4.20;1.10;;;10.10;99.90;;;;;;5004901;28;20037;-84
2021/12/01 03:17:28;;;;;;;3.17;0.80;;;10.10;99.90;;;;;;4966870;28;20042;-84
2021/12/01 03:19:55;;;;;;;3.17;1.02;;;10.10;99.90;;;;;;4988882;28;20384;-84
2021/12/01 03:22:21;;;;;;;2.90;0.77;;;10.10;99.90;;;;;;4985555;28;20038;-84
2021/12/01 03:24:47;;;;;;;2.92;0.85;;;10.10;99.90;;;;;;4985447;28;20064;-84
2021/12/01 03:27:12;;;;;;;3.75;1.10;;;10.10;99.90;;;;;;5002010;28;20057;-83
2021/12/01 03:29:38;;;;;;;4.85;1.10;;;10.10;99.90;;;;;;4985601;28;20026;-84
2021/12/01 03:32:06;;;;;;;2.10;0.75;;;10.10;99.90;;;;;;4987785;28;20180;-83
2021/12/01 03:34:33;;;;;;;2.20;1.00;;;10.10;99.90;;;;;;5005491;28;20049;-84
2021/12/01 03:36:59;;;;;;;2.50;1.10;;;10.20;99.90;;;;;;4986610;28;20044;-83
2021/12/01 03:39:25;;;;;;;3.92;1.30;;;10.10;99.90;;;;;;4970433;28;20034;-83
2021/12/01 03:41:50;;;;;;;3.45;1.30;;;10.20;99.90;;;;;;4985603;28;20037;-83
2021/12/01 03:44:16;;;;;;;2.50;1.30;;;10.20;99.90;;;;;;4989120;28;20551;-84
2021/12/01 03:46:42;;;;;;;6.18;1.52;;;10.20;99.90;;;;;;4982053;28;20125;-83
2021/12/01 03:49:07;;;;;;;4.07;1.40;;;10.10;99.90;;;;;;4985407;28;20034;-83
2021/12/01 03:51:33;;;;;;;3.28;1.13;;;10.10;99.90;;;;;;4984398;28;20121;-83
2021/12/01 03:53:59;;;;;;;2.95;1.23;;;10.10;99.90;;;;;;4983370;28;20038;-84
2021/12/01 03:56:25;;;;;;;2.42;0.98;;;10.00;99.90;;;;;;5008274;28;20067;-83
2021/12/01 03:58:51;;;;;;;4.00;1.30;;;10.00;99.90;;;;;;5010633;28;20046;-84
2021/12/01 04:01:16;;;;;;;6.03;1.73;;;9.90;99.90;;;;;;4986288;28;20046;-83
2021/12/01 04:03:42;;;;;;;4.82;1.70;;;9.80;99.90;;;;;;4994121;28;20049;-83
2021/12/01 04:06:08;;;;;;;3.42;1.20;;;9.70;99.90;;;;;;5006597;28;20116;-84
2021/12/01 04:08:34;;;;;;;3.83;1.20;;;9.80;99.90;;;;;;4995262;28;20569;-84
2021/12/01 04:11:00;;;;;;;2.83;1.20;;;9.80;99.90;;;;;;4994701;28;20038;-84
2021/12/01 04:13:26;;;;;;;3.28;1.55;;;9.80;99.90;;;;;;4992946;28;20157;-84
2021/12/01 04:15:51;;;;;;;4.38;1.25;;;9.80;99.90;;;;;;4987571;28;20076;-85
2021/12/01 04:18:17;;;;;;;1.90;0.80;;;9.80;99.90;;;;;;5001273;28;20045;-85
2021/12/01 04:20:42;;;;;;;3.05;1.30;;;9.80;99.90;;;;;;4982997;28;20033;-85
2021/12/01 04:23:08;;;;;;;2.90;0.98;;;9.80;99.90;;;;;;4989637;28;20110;-85
2021/12/01 04:25:34;;;;;;;2.40;0.98;;;9.90;99.90;;;;;;5007184;28;20107;-86
2021/12/01 04:28:00;;;;;;;2.20;1.10;;;9.90;99.90;;;;;;5010214;28;20049;-86
2021/12/01 04:30:26;;;;;;;2.10;0.93;;;9.80;99.90;;;;;;4999583;28;20049;-86
2021/12/01 04:32:53;;;;;;;2.33;1.00;;;9.80;99.90;;;;;;4991457;28;20034;-86
2021/12/01 04:35:21;;;;;;;5.78;1.60;;;9.70;99.90;;;;;;4995645;28;20172;-85
2021/12/01 04:37:48;;;;;;;2.17;1.15;;;9.60;99.90;;;;;;4996992;28;20490;-86
2021/12/01 04:40:14;;;;;;;3.08;1.13;;;9.70;99.90;;;;;;4997207;28;20068;-85
2021/12/01 04:42:40;;;;;;;2.13;1.10;;;9.60;99.90;;;;;;4987454;28;20048;-86
2021/12/01 04:45:13;;;;;;;3.53;1.30;;;9.60;99.90;;;;;;4985083;28;20053;-86
2021/12/01 04:47:41;;;;;;;2.85;1.17;;;9.60;99.90;;;;;;4993620;28;20034;-85
2021/12/01 04:50:07;;;;;;;2.80;1.45;;;9.60;99.90;;;;;;4994846;28;20194;-85
2021/12/01 04:52:33;;;;;;;2.05;1.00;;;9.50;99.90;;;;;;5005402;28;20053;-86
2021/12/01 04:54:59;;;;;;;3.08;1.40;;;9.40;99.90;;;;;;5012298;28;20042;-86
2021/12/01 04:57:24;;;;;;;2.15;1.25;;;9.40;99.90;;;;;;5017198;28;20086;-85
2021/12/01 04:59:50;;;;;;;2.05;1.00;;;9.40;99.90;;;;;;5015557;28;20042;-85
2021/12/01 05:02:16;;;;;;;2.67;1.58;;;9.50;99.90;;;;;;4993071;28;20089;-86
2021/12/01 05:04:42;;;;;;;3.45;1.52;;;9.40;99.90;;;;;;4995361;28;20073;-85
2021/12/01 05:07:09;;;;;;;3.53;1.55;;;9.40;99.90;;;;;;4999279;28;20462;-86
2021/12/01 05:09:35;;;;;;;3.92;1.25;;;9.40;99.90;;;;;;5003824;28;20049;-86
2021/12/01 05:12:01;;;;;;;3.33;1.65;;;9.40;99.90;;;;;;4985733;28;20046;-86
2021/12/01 05:14:28;;;;;;;2.63;1.52;;;9.40;99.90;;;;;;4995825;28;20045;-86
2021/12/01 05:16:55;;;;;;;4.30;1.48;;;9.50;99.90;;;;;;5008967;28;20063;-85
2021/12/01 05:19:20;;;;;;;2.97;1.27;;;9.50;99.90;;;;;;5000560;28;20064;-86
2021/12/01 05:21:46;;;;;;;3.25;1.60;;;9.50;99.90;;;;;;4992880;28;20495;-83
2021/12/01 05:24:12;;;;;;;3.63;1.55;;;9.40;99.90;;;;;;5002389;28;20022;-83
2021/12/01 05:26:38;;;;;;;2.50;1.27;;;9.40;99.90;;;;;;4985806;28;20504;-84
2021/12/01 05:29:04;;;;;;;2.47;1.48;;;9.40;99.90;;;;;;5001560;28;20050;-84
2021/12/01 05:31:30;;;;;;;1.33;0.82;;;9.40;99.90;;;;;;4993882;28;20422;-84
2021/12/01 05:33:55;;;;;;;3.22;1.77;;;9.40;99.90;;;;;;4992685;28;20045;-84
2021/12/01 05:36:22;;;;;;;3.47;2.20;;;9.40;99.90;;;;;;4985482;28;20061;-84
2021/12/01 05:38:48;;;;;;;3.72;2.55;;;9.30;99.90;;;;;;4994655;28;20045;-84
2021/12/01 05:41:14;;;;;;;3.55;2.45;;;9.30;99.90;;;;;;4989525;28;20407;-84
2021/12/01 05:43:39;;;;;;;3.28;2.00;;;9.20;99.90;;;;;;4987961;28;20052;-84
2021/12/01 05:46:06;;;;;;;3.58;1.88;;;9.20;99.90;;;;;;5008125;28;20044;-83
2021/12/01 05:48:32;;;;;;;2.75;1.40;;;9.20;99.90;;;;;;4986024;28;20038;-84
2021/12/01 05:51:02;;;;;;;3.03;1.60;;;9.20;99.90;;;;;;4985238;28;20037;-83
2021/12/01 05:53:27;;;;;;;2.08;1.00;;;9.20;99.90;;;;;;4987825;28;20088;-83
2021/12/01 05:55:56;;;;;;;2.60;1.30;;;9.20;99.90;;;;;;4990279;28;20045;-83
2021/12/01 05:58:21;;;;;;;2.13;1.00;;;9.10;99.90;;;;;;4992531;28;20042;-83
2021/12/01 06:00:47;;;;;;;1.70;0.85;;;9.10;99.90;;;;;;4974208;28;20129;-83
2021/12/01 06:03:16;;;;;;;1.60;0.85;;;9.10;99.90;;;;;;4991347;28;20479;-83
2021/12/01 06:05:43;;;;;;;1.13;0.65;;;9.10;99.90;;;;;;5001505;28;20069;-83
2021/12/01 06:08:09;;;;;;;1.33;0.57;;;9.10;99.90;;;;;;4992135;28;20037;-84
2021/12/01 06:10:35;;;;;;;1.30;0.60;;;9.10;99.90;;;;;;5006107;28;20037;-83
2021/12/01 06:13:01;;;;;;;1.60;0.63;;;9.00;99.90;;;;;;4990067;28;20397;-83
2021/12/01 06:15:26;;;;;;;1.70;0.90;;;9.10;99.90;;;;;;4988253;28;20046;-83
2021/12/01 06:17:52;;;;;;;1.02;0.65;;;9.00;99.90;;;;;;4991172;28;20119;-83
2021/12/01 06:20:18;;;;;;;1.35;0.70;;;9.00;99.90;;;;;;5003485;28;20065;-84
2021/12/01 06:22:44;;;;;;;1.50;0.70;;;9.00;99.90;;;;;;4992639;28;20065;-83
2021/12/01 06:25:11;;;;;;;1.10;0.60;;;9.00;99.90;;;;;;4988865;28;20546;-85
2021/12/01 06:27:37;;;;;;;1.42;0.70;;;9.00;99.90;;;;;;4994030;28;20479;-84
2021/12/01 06:30:05;;;;;;;1.63;0.77;;;9.00;99.90;;;;;;4988889;28;20093;-84
2021/12/01 06:32:33;;;;;;;1.40;0.80;;;8.90;99.90;;;;;;4989122;28;20046;-84
2021/12/01 06:34:58;;;;;;;1.25;0.60;;;8.90;99.90;;;;;;4980541;28;20128;-84
2021/12/01 06:37:24;;;;;;;1.63;0.70;;;8.80;99.90;;;;;;5006466;28;20527;-84
2021/12/01 06:39:51;;;;;;;1.30;0.70;;;8.90;99.90;;;;;;5005853;28;20050;-84
2021/12/01 06:42:17;;;;;;;1.52;0.70;;;8.80;99.90;;;;;;5009234;28;20297;-84
2021/12/01 06:44:43;;;;;;;1.58;0.90;;;8.80;99.90;;;;;;4984516;28;20033;-84
2021/12/01 06:47:08;;;;;;;1.35;0.70;;;8.80;99.90;;;;;;4987856;28;20380;-84
2021/12/01 06:49:34;;;;;;;1.90;0.88;;;8.80;99.90;;;;;;4991029;28;20033;-84
2021/12/01 06:52:00;;;;;;;2.15;1.20;;;8.80;99.90;;;;;;4990327;28;20073;-84
2021/12/01 06:54:25;;;;;;;1.42;0.85;;;8.80;99.90;;;;;;4992596;28;20100;-85
2021/12/01 06:56:51;;;;;;;1.88;0.90;;;8.80;99.90;;;;;;4987440;28;20036;-84
2021/12/01 06:59:17;;;;;;;1.77;0.93;;;8.80;99.90;;;;;;4990430;28;20122;-84
2021/12/01 07:01:43;;;;;;;2.30;1.15;;;8.80;99.90;;;;;;4991044;28;20037;-85
2021/12/01 07:04:09;;;;;;;1.73;0.88;;;8.80;99.90;;;;;;4985450;28;20056;-84
2021/12/01 07:06:34;;;;;;;1.33;0.60;;;8.80;99.90;;;;;;5004950;28;20053;-83
2021/12/01 07:09:01;;;;;;;2.42;1.30;;;8.80;99.90;;;;;;5009553;28;20510;-84
2021/12/01 07:11:29;;;;;;;2.67;1.30;;;8.80;99.90;;;;;;4986567;28;20120;-84
2021/12/01 07:13:55;;;;;;;2.75;1.70;;;8.80;99.90;;;;;;4991246;28;20042;-84
2021/12/01 07:16:22;;;;;;;3.83;2.13;;;8.90;99.90;;;;;;4986333;28;20038;-84
2021/12/01 07:18:48;;;;;;;2.72;1.65;;;8.90;99.90;;;;;;5007079;28;20048;-84
2021/12/01 07:21:13;;;;;;;4.15;1.60;;;8.90;99.90;;;;;;4988258;28;20046;-84
2021/12/01 07:23:39;;;;;;;3.40;1.98;;;8.90;99.90;;;;;;4988604;28;20153;-85
2021/12/01 07:26:05;;;;;;;3.25;1.75;;;8.90;99.90;;;;;;4994426;28;20088;-85
2021/12/01 07:28:31;;;;;;;3.47;1.52;;;9.00;99.90;;;;;;5010605;28;20037;-86
2021/12/01 07:30:57;;;;;;;3.38;2.28;;;9.00;99.90;;;;;;4983988;28;20036;-85
2021/12/01 07:33:24;;;;;;;3.92;2.20;;;9.00;99.90;;;;;;4989519;28;20499;-82
2021/12/01 07:35:50;;;;;;;3.22;1.33;;;9.00;99.90;;;;;;4966489;28;20053;-82
2021/12/01 07:38:15;;;;;;;3.45;1.50;;;9.00;99.90;;;;;;4989051;28;20034;-82
2021/12/01 07:40:41;;;;;;;5.00;1.73;;;9.10;99.90;;;;;;4983376;28;20049;-82
2021/12/01 07:43:07;;;;;;;3.33;1.75;;;9.10;99.90;;;;;;4985026;28;20471;-82
2021/12/01 07:45:33;;;;;;;3.92;1.63;;;9.10;99.90;;;;;;4990580;28;20042;-82
2021/12/01 07:47:58;;;;;;;3.03;2.00;;;9.10;99.90;;;;;;4989749;28;20033;-83
2021/12/01 07:50:24;;;;;;;3.70;1.98;;;9.10;99.90;;;;;;5007107;28;20476;-82
2021/12/01 07:52:50;;;;;;;3.67;1.88;;;9.20;99.90;;;;;;4994518;28;20038;-82
2021/12/01 07:55:16;;;;;;;3.50;2.10;;;9.20;99.90;;;;;;4994354;28;20049;-82
2021/12/01 07:57:42;;;;;;;2.90;1.70;;;9.20;99.90;;;;;;4990592;28;20038;-82
2021/12/01 08:00:08;;;;;;;4.68;1.98;;;9.20;99.90;;;;;;4974189;28;20069;-82
2021/12/01 08:02:35;;;;;;;4.57;2.33;;;9.30;99.90;;;;;;5005274;28;20495;-82
2021/12/01 08:05:03;;;;;;;5.50;2.30;;;9.30;99.90;;;;;;5003829;28;20161;-82
2021/12/01 08:07:29;;;;;;;3.35;1.92;;;9.30;99.90;;;;;;4970824;28;20751;-82
2021/12/01 08:09:55;;;;;;;3.75;2.05;;;9.30;99.90;;;;;;4989329;28;20103;-82
2021/12/01 08:12:20;;;;;;;3.33;1.55;;;9.30;99.90;;;;;;4985971;28;20491;-82
2021/12/01 08:14:47;;;;;;;4.15;1.90;;;9.30;99.90;;;;;;5006603;28;20096;-82
2021/12/01 08:17:12;;;;;;;2.88;1.75;;;9.40;99.90;;;;;;4980038;28;20050;-82
2021/12/01 08:19:38;;;;;;;2.65;1.42;;;9.30;99.90;;;;;;4985970;28;20041;-82
2021/12/01 08:22:05;;;;;;;3.28;1.77;;;9.40;99.90;;;;;;5005223;28;20081;-82
2021/12/01 08:24:32;;;;;;;3.28;1.48;;;9.40;99.90;;;;;;4975891;28;20088;-82
2021/12/01 08:26:58;;;;;;;4.97;1.98;;;9.40;99.90;;;;;;4992259;28;20451;-83
2021/12/01 08:29:23;;;;;;;6.57;2.80;;;9.40;99.90;;;;;;5001661;28;20073;-82
2021/12/01 08:31:52;;;;;;;9.52;2.70;;;9.30;99.90;;;;;;4997942;28;20041;-83
2021/12/01 08:34:17;;;;;;;5.55;2.70;;;9.20;99.90;;;;;;4988171;28;20077;-82
2021/12/01 08:36:47;;;;;;;6.15;2.47;;;9.20;99.90;;;;;;4984341;28;20064;-82
2021/12/01 08:39:12;;;;;;;4.30;1.70;;;9.00;99.90;;;;;;4975527;28;20038;-82
2021/12/01 08:41:38;;;;;;;6.07;2.40;;;9.00;99.90;;;;;;4990088;28;20442;-82
2021/12/01 08:44:04;;;;;;;4.20;1.55;;;9.00;99.90;;;;;;4988979;28;20050;-82
2021/12/01 08:46:30;;;;;;;5.25;1.60;;;9.00;99.90;;;;;;4993954;28;20135;-82
2021/12/01 08:48:58;;;;;;;6.18;1.33;;;9.10;99.90;;;;;;4991098;28;20514;-82
2021/12/01 08:51:25;;;;;;;4.90;1.10;;;9.10;99.90;;;;;;4991490;28;20045;-82
2021/12/01 08:53:50;;;;;;;4.65;1.10;;;9.00;99.90;;;;;;4992139;28;20041;-82
2021/12/01 08:56:16;;;;;;;6.82;1.17;;;9.00;99.90;;;;;;4995152;28;20046;-82
2021/12/01 08:58:42;;;;;;;8.43;1.20;;;9.00;99.90;;;;;;4990407;28;20033;-82
2021/12/01 09:01:07;;;;;;;10.63;0.93;;;9.00;99.90;;;;;;4994810;28;20511;-82
2021/12/01 09:03:33;;;;;;;8.32;1.05;;;8.90;99.90;;;;;;4983532;28;20051;-82
2021/12/01 09:05:59;;;;;;;11.40;1.30;;;8.90;99.90;;;;;;4987562;28;20495;-82
2021/12/01 09:08:25;;;;;;;8.02;0.98;;;8.80;99.90;;;;;;4991981;28;20042;-83
2021/12/01 09:10:54;;;;;;;7.70;0.80;;;8.80;99.90;;;;;;4996921;28;20053;-82
2021/12/01 09:13:29;;;;;;;11.98;1.58;;;8.80;99.90;;;;;;4996461;28;20129;-82
2021/12/01 09:15:56;;;;;;;11.27;1.52;;;8.80;99.90;;;;;;4987182;28;20025;-82
2021/12/01 09:18:24;;;;;;;10.63;1.23;;;8.90;99.90;;;;;;5005197;28;20064;-82
2021/12/01 09:20:51;;;;;;;4.85;0.88;;;8.90;99.90;;;;;;4993956;28;20092;-82
2021/12/01 09:23:18;;;;;;;14.95;1.13;;;8.90;99.90;;;;;;4989327;28;20042;-82
2021/12/01 09:25:44;;;;;;;7.05;1.00;;;9.00;99.90;;;;;;4992815;28;20077;-82
2021/12/01 09:28:12;;;;;;;5.80;1.13;;;9.00;99.90;;;;;;5011426;28;20049;-82
2021/12/01 09:30:38;;;;;;;5.50;0.60;;;9.00;99.90;;;;;;4995668;28;20037;-82
2021/12/01 09:33:03;;;;;;;5.78;0.65;;;9.00;99.90;;;;;;4990851;28;20099;-82
2021/12/01 09:35:29;;;;;;;3.95;0.70;;;9.00;99.90;;;;;;5009069;28;20037;-83
2021/12/01 09:37:54;;;;;;;6.00;0.60;;;9.00;99.90;;;;;;4989811;28;20403;-82
2021/12/01 09:40:20;;;;;;;3.95;0.50;;;9.10;99.90;;;;;;4989192;28;20123;-82
2021/12/01 09:42:49;;;;;;;7.65;1.00;;;9.10;99.90;;;;;;4992157;28;20042;-82
2021/12/01 09:45:17;;;;;;;9.73;1.58;;;9.10;99.90;;;;;;4992431;28;20034;-83
2021/12/01 09:47:43;;;;;;;6.10;0.63;;;9.10;99.90;;;;;;5008124;28;20084;-82
2021/12/01 09:50:10;;;;;;;4.28;0.50;;;9.00;99.90;;;;;;5009226;28;20454;-82
2021/12/01 09:52:36;;;;;;;7.13;0.75;;;8.90;99.90;;;;;;5007020;28;20038;-82
2021/12/01 09:55:03;;;;;;;5.50;0.50;;;8.90;99.90;;;;;;4992872;28;20045;-82
2021/12/01 09:57:28;;;;;;;6.40;1.15;;;8.80;99.90;;;;;;4991512;28;20606;-82
2021/12/01 09:59:57;;;;;;;9.35;0.75;;;8.80;99.90;;;;;;4992766;28;20120;-82
2021/12/01 10:02:25;;;;;;;5.75;0.60;;;8.80;99.90;;;;;;5008065;28;20030;-82
2021/12/01 10:04:53;;;;;;;8.77;0.80;;;8.70;99.90;;;;;;4979627;28;20499;-82
2021/12/01 10:07:22;;;;;;;6.65;0.80;;;8.70;99.90;;;;;;4990743;28;20044;-81
2021/12/01 10:09:56;;;;;;;3.53;0.38;;;8.70;99.90;;;;;;5030610;28;20041;-82
2021/12/01 10:12:26;;;;;;;7.00;0.68;;;8.70;99.90;;;;;;4992089;28;20407;-82
2021/12/01 10:14:52;;;;;;;6.80;0.50;;;8.70;99.90;;;;;;4992364;28;20034;-82
2021/12/01 10:17:33;;;;;;;4.13;0.60;;;8.70;99.90;;;;;;4986186;28;20038;-82
2021/12/01 10:20:18;;;;;;;5.45;0.55;;;8.70;99.90;;;;;;5003591;28;20124;-82
2021/12/01 10:23:16;;;;;;;10.95;0.90;;;8.70;99.90;;;;;;5004343;28;20046;-82
2021/12/01 10:25:43;;;;;;;4.20;0.85;;;8.80;99.90;;;;;;4967186;28;20128;-82
2021/12/01 10:28:29;;;;;;;6.63;0.80;;;8.90;99.90;;;;;;4992844;28;20041;-82
2021/12/01 10:30:54;;;;;;;10.13;1.20;;;9.00;99.90;;;;;;4994840;28;20034;-82
2021/12/01 10:33:20;;;;;;;9.23;0.90;;;9.00;99.90;;;;;;5010740;28;20061;-82
2021/12/01 10:35:45;;;;;;;10.90;0.90;;;8.90;99.90;;;;;;4988423;28;20156;-82
2021/12/01 10:38:13;;;;;;;6.63;1.30;;;9.00;99.90;;;;;;4987631;28;20404;-82
2021/12/01 10:40:40;;;;;;;7.70;1.10;;;9.00;99.90;;;;;;4971490;28;20100;-82
2021/12/01 10:43:12;;;;;;;5.78;0.75;;;9.20;99.90;;;;;;4974391;28;20531;-81
2021/12/01 10:45:42;;;;;;;4.15;0.70;;;9.20;99.90;;;;;;4989841;28;20034;-81
2021/12/01 10:48:10;;;;;;;5.72;0.88;;;9.20;99.90;;;;;;4974077;28;20052;-82
2021/12/01 10:50:41;;;;;;;7.68;0.70;;;9.10;99.90;;;;;;5024980;28;20045;-82
2021/12/01 10:53:11;;;;;;;9.48;0.80;;;9.10;99.90;;;;;;4994787;28;20430;-82
2021/12/01 10:55:51;;;;;;;8.70;1.08;;;9.00;99.90;;;;;;4989068;28;20040;-82
2021/12/01 10:58:18;;;;;;;10.82;1.58;;;9.10;99.90;;;;;;4989547;28;20503;-82
2021/12/01 11:00:49;;;;;;;5.72;0.65;;;9.10;99.90;;;;;;4987376;28;20125;-82
2021/12/01 11:03:20;;;;;;;6.75;0.88;;;9.10;99.90;;;;;;4987908;28;20069;-82
2021/12/01 11:05:50;;;;;;;10.57;1.58;;;9.10;99.90;;;;;;4986399;28;20481;-82
2021/12/01 11:08:27;;;;;;;9.48;1.35;;;9.20;99.90;;;;;;4986536;28;20515;-82
2021/12/01 11:10:56;;;;;;;13.38;1.77;;;9.20;99.90;;;;;;4990713;28;20045;-82
2021/12/01 11:13:24;;;;;;;7.38;1.15;;;9.20;99.90;;;;;;4988824;28;20150;-82
2021/12/01 11:15:58;;;;;;;14.02;1.42;;;9.30;99.90;;;;;;4989351;28;20053;-83
2021/12/01 11:18:30;;;;;;;13.88;1.50;;;9.30;99.90;;;;;;4981611;28;20042;-83
2021/12/01 11:21:01;;;;;;;9.10;1.27;;;9.30;99.90;;;;;;4992389;28;20041;-82
2021/12/01 11:23:30;;;;;;;9.98;1.42;;;9.30;99.90;;;;;;4991450;28;20033;-83
2021/12/01 11:26:08;;;;;;;11.55;1.02;;;9.30;99.90;;;;;;4990955;28;20041;-82
2021/12/01 11:28:52;;;;;;;10.52;1.10;;;9.30;99.90;;;;;;4985404;28;20044;-83
2021/12/01 11:31:42;;;;;;;8.70;2.15;;;9.30;99.90;;;;;;4990816;28;20041;-82
2021/12/01 11:34:11;;;;;;;8.40;1.38;;;9.30;99.90;;;;;;4984575;28;20050;-82
2021/12/01 11:36:42;;;;;;;8.30;1.40;;;9.30;99.90;;;;;;4989683;28;20399;-84
2021/12/01 11:39:11;;;;;;;14.83;2.10;;;9.30;99.90;;;;;;5002480;28;20042;-82
2021/12/01 11:41:42;;;;;;;10.02;1.55;;;9.20;99.90;;;;;;5020626;28;20395;-82
2021/12/01 11:44:09;;;;;;;7.65;1.90;;;9.20;99.90;;;;;;4989947;28;20049;-82
2021/12/01 11:46:35;;;;;;;8.50;1.40;;;9.20;99.90;;;;;;4985982;28;20041;-82
2021/12/01 11:49:06;;;;;;;18.05;2.15;;;9.20;99.90;;;;;;4992145;28;20117;-82
2021/12/01 11:51:36;;;;;;;10.05;1.38;;;9.20;99.90;;;;;;4969275;28;20042;-82
2021/12/01 11:54:06;;;;;;;14.38;1.65;;;9.30;99.90;;;;;;4994226;28;20056;-82
2021/12/01 11:56:37;;;;;;;9.00;1.30;;;9.30;99.90;;;;;;4990318;28;20044;-82
2021/12/01 11:59:24;;;;;;;8.18;1.40;;;9.30;99.90;;;;;;4982193;28;20096;-82
2021/12/01 12:01:57;;;;;;;11.90;1.40;;;9.20;99.90;;;;;;5009290;28;20034;-82
2021/12/01 12:04:36;;;;;;;12.60;1.60;;;9.20;99.90;;;;;;4984108;28;20049;-82
2021/12/01 12:07:15;;;;;;;12.52;1.25;;;9.20;99.90;;;;;;5006071;28;20041;-81
2021/12/01 12:09:42;;;;;;;13.52;1.33;;;9.10;99.90;;;;;;5000299;28;20053;-81
2021/12/01 12:12:17;;;;;;;10.88;1.63;;;9.10;99.90;;;;;;4976953;28;20037;-82
2021/12/01 12:14:46;;;;;;;13.57;1.98;;;9.10;99.90;;;;;;5003509;28;20049;-82
2021/12/01 12:17:19;;;;;;;9.70;1.60;;;8.90;99.90;;;;;;4987720;28;20092;-82
2021/12/01 12:19:53;;;;;;;9.27;1.40;;;8.90;99.90;;;;;;4976022;28;20132;-82
2021/12/01 12:22:36;;;;;;;11.82;2.08;;;8.80;99.90;;;;;;4988787;28;20188;-82
2021/12/01 12:25:07;;;;;;;10.75;2.65;;;8.80;99.90;;;;;;5006016;28;20041;-82
2021/12/01 12:27:41;;;;;;;14.43;1.77;;;8.70;99.90;;;;;;4995382;28;20045;-82
2021/12/01 12:30:09;;;;;;;7.75;1.20;;;8.80;99.90;;;;;;4992948;28;20042;-84
2021/12/01 12:32:42;;;;;;;13.25;1.92;;;8.80;99.90;;;;;;4993957;28;20038;-84
2021/12/01 12:35:13;;;;;;;;;;;8.80;99.90;;;;;;4991027;28;20042;-84
2021/12/01 12:37:40;;;;;;;10.63;1.55;;;8.80;99.90;;;;;;4991978;28;19924;-88
2021/12/01 12:40:21;;;;;;;10.38;1.75;;;8.80;99.90;;;;;;4997049;28;20114;-85
2021/12/01 12:43:08;;;;;;;10.38;1.83;;;8.80;99.90;;;;;;4994620;28;20529;-84
2021/12/01 12:45:36;;;;;;;10.90;1.10;;;8.80;99.90;;;;;;4990057;28;20467;-84
2021/12/01 12:48:23;;;;;;;12.57;1.30;;;8.80;99.90;;;;;;5005715;28;20179;-84
2021/12/01 12:51:06;;;;;;;12.27;2.00;;;8.90;99.90;;;;;;4991479;28;20038;-85
2021/12/01 12:53:32;;;;;;;9.48;1.90;;;8.80;99.90;;;;;;4990612;28;20038;-84
2021/12/01 12:55:58;;;;;;;13.90;1.65;;;8.80;99.90;;;;;;4994199;28;20046;-84
2021/12/01 12:58:35;;;;;;;10.48;1.40;;;8.90;99.90;;;;;;4991851;28;20125;-84
2021/12/01 13:01:01;;;;;;;15.57;1.70;;;9.10;99.90;;;;;;4991766;28;20046;-85
2021/12/01 13:03:29;;;;;;;9.95;1.10;;;9.10;99.90;;;;;;4993728;28;20042;-85